sensor_id;sensor_type;location;lat;lon;timestamp;pressure;altitude;pressure_sealevel;temperature
19040;BMP180;9652;49.014;12.052;2023-05-10T00:00:39;97179.00;;;18.80
19040;BMP180;9652;49.014;12.052;2023-05-10T00:03:08;97172.00;;;18.80
19040;BMP180;9652;49.014;12.052;2023-05-10T00:05:35;97182.00;;;18.80
19040;BMP180;9652;49.014;12.052;2023-05-10T00:08:02;97177.00;;;18.80
19040;BMP180;9652;49.014;12.052;2023-05-10T00:10:29;97187.00;;;18.80
19040;BMP180;9652;49.014;12.052;2023-05-10T00:12:56;97171.00;;;18.80
19040;BMP180;9652;49.014;12.052;2023-05-10T00:15:23;97169.00;;;18.80
19040;BMP180;9652;49.014;12.052;2023-05-10T00:17:50;97174.00;;;18.80
19040;BMP180;9652;49.014;12.052;2023-05-10T00:20:18;97166.00;;;18.80
19040;BMP180;9652;49.014;12.052;2023-05-10T00:22:46;97161.00;;;18.80
19040;BMP180;9652;49.014;12.052;2023-05-10T00:25:13;97158.00;;;18.80
19040;BMP180;9652;49.014;12.052;2023-05-10T00:27:40;97078.00;;;18.80
19040;BMP180;9652;49.014;12.052;2023-05-10T00:30:08;97158.00;;;18.70
19040;BMP180;9652;49.014;12.052;2023-05-10T00:32:35;97035.00;;;18.70
19040;BMP180;9652;49.014;12.052;2023-05-10T00:35:02;97159.00;;;18.70
19040;BMP180;9652;49.014;12.052;2023-05-10T00:37:31;97147.00;;;18.70
19040;BMP180;9652;49.014;12.052;2023-05-10T00:39:58;97163.00;;;18.70
19040;BMP180;9652;49.014;12.052;2023-05-10T00:42:26;97158.00;;;18.70
19040;BMP180;9652;49.014;12.052;2023-05-10T00:44:54;97154.00;;;18.70
19040;BMP180;9652;49.014;12.052;2023-05-10T00:47:22;97125.00;;;18.70
19040;BMP180;9652;49.014;12.052;2023-05-10T00:49:50;97148.00;;;18.70
19040;BMP180;9652;49.014;12.052;2023-05-10T00:52:17;97164.00;;;18.70
19040;BMP180;9652;49.014;12.052;2023-05-10T00:54:46;97151.00;;;18.70
19040;BMP180;9652;49.014;12.052;2023-05-10T00:57:13;97153.00;;;18.70
19040;BMP180;9652;49.014;12.052;2023-05-10T00:59:40;97150.00;;;18.60
19040;BMP180;9652;49.014;12.052;2023-05-10T01:02:08;97151.00;;;18.60
19040;BMP180;9652;49.014;12.052;2023-05-10T01:04:36;97160.00;;;18.60
19040;BMP180;9652;49.014;12.052;2023-05-10T01:07:03;97152.00;;;18.60
19040;BMP180;9652;49.014;12.052;2023-05-10T01:09:30;97151.00;;;18.60
19040;BMP180;9652;49.014;12.052;2023-05-10T01:12:00;97154.00;;;18.60
19040;BMP180;9652;49.014;12.052;2023-05-10T01:14:29;97135.00;;;18.60
19040;BMP180;9652;49.014;12.052;2023-05-10T01:16:57;97157.00;;;18.60
19040;BMP180;9652;49.014;12.052;2023-05-10T01:19:26;97159.00;;;18.60
19040;BMP180;9652;49.014;12.052;2023-05-10T01:22:22;97111.00;;;18.60
19040;BMP180;9652;49.014;12.052;2023-05-10T01:25:19;97163.00;;;18.60
19040;BMP180;9652;49.014;12.052;2023-05-10T01:28:22;97155.00;;;18.60
19040;BMP180;9652;49.014;12.052;2023-05-10T01:31:09;97168.00;;;18.60
19040;BMP180;9652;49.014;12.052;2023-05-10T01:33:50;97166.00;;;18.60
19040;BMP180;9652;49.014;12.052;2023-05-10T01:36:29;97181.00;;;18.60
19040;BMP180;9652;49.014;12.052;2023-05-10T01:39:02;97175.00;;;18.60
19040;BMP180;9652;49.014;12.052;2023-05-10T01:41:41;97176.00;;;18.60
19040;BMP180;9652;49.014;12.052;2023-05-10T01:44:22;97169.00;;;18.60
19040;BMP180;9652;49.014;12.052;2023-05-10T01:47:07;97169.00;;;18.60
19040;BMP180;9652;49.014;12.052;2023-05-10T01:49:43;97177.00;;;18.50
19040;BMP180;9652;49.014;12.052;2023-05-10T01:52:16;97178.00;;;18.60
19040;BMP180;9652;49.014;12.052;2023-05-10T01:54:53;97148.00;;;18.60
19040;BMP180;9652;49.014;12.052;2023-05-10T01:57:26;97168.00;;;18.60
19040;BMP180;9652;49.014;12.052;2023-05-10T01:59:56;97171.00;;;18.60
19040;BMP180;9652;49.014;12.052;2023-05-10T02:02:25;97170.00;;;18.60
19040;BMP180;9652;49.014;12.052;2023-05-10T02:04:58;97161.00;;;18.50
19040;BMP180;9652;49.014;12.052;2023-05-10T02:07:28;97103.00;;;18.60
19040;BMP180;9652;49.014;12.052;2023-05-10T02:09:56;97143.00;;;18.50
19040;BMP180;9652;49.014;12.052;2023-05-10T02:12:25;97160.00;;;18.50
19040;BMP180;9652;49.014;12.052;2023-05-10T02:14:54;97168.00;;;18.50
19040;BMP180;9652;49.014;12.052;2023-05-10T02:17:24;97169.00;;;18.40
19040;BMP180;9652;49.014;12.052;2023-05-10T02:19:55;97164.00;;;18.40
19040;BMP180;9652;49.014;12.052;2023-05-10T02:22:24;97158.00;;;18.40
19040;BMP180;9652;49.014;12.052;2023-05-10T02:24:53;97164.00;;;18.40
19040;BMP180;9652;49.014;12.052;2023-05-10T02:27:23;97143.00;;;18.30
19040;BMP180;9652;49.014;12.052;2023-05-10T02:29:52;97160.00;;;18.30
19040;BMP180;9652;49.014;12.052;2023-05-10T02:32:22;97172.00;;;18.30
19040;BMP180;9652;49.014;12.052;2023-05-10T02:34:52;97162.00;;;18.30
19040;BMP180;9652;49.014;12.052;2023-05-10T02:37:22;97118.00;;;18.10
19040;BMP180;9652;49.014;12.052;2023-05-10T02:39:52;97167.00;;;18.20
19040;BMP180;9652;49.014;12.052;2023-05-10T02:42:26;97171.00;;;18.20
19040;BMP180;9652;49.014;12.052;2023-05-10T02:44:59;97155.00;;;18.20
19040;BMP180;9652;49.014;12.052;2023-05-10T02:47:27;97158.00;;;18.10
19040;BMP180;9652;49.014;12.052;2023-05-10T02:49:55;97155.00;;;18.10
19040;BMP180;9652;49.014;12.052;2023-05-10T02:52:30;97124.00;;;18.10
19040;BMP180;9652;49.014;12.052;2023-05-10T02:55:05;97161.00;;;18.10
19040;BMP180;9652;49.014;12.052;2023-05-10T02:57:34;97162.00;;;18.10
19040;BMP180;9652;49.014;12.052;2023-05-10T03:00:03;97148.00;;;18.10
19040;BMP180;9652;49.014;12.052;2023-05-10T03:02:31;97159.00;;;18.10
19040;BMP180;9652;49.014;12.052;2023-05-10T03:04:58;97159.00;;;18.10
19040;BMP180;9652;49.014;12.052;2023-05-10T03:07:27;97162.00;;;18.00
19040;BMP180;9652;49.014;12.052;2023-05-10T03:09:54;97090.00;;;18.00
19040;BMP180;9652;49.014;12.052;2023-05-10T03:12:33;97160.00;;;17.90
19040;BMP180;9652;49.014;12.052;2023-05-10T03:15:14;97155.00;;;17.90
19040;BMP180;9652;49.014;12.052;2023-05-10T03:17:52;97150.00;;;17.90
19040;BMP180;9652;49.014;12.052;2023-05-10T03:20:25;97141.00;;;17.80
19040;BMP180;9652;49.014;12.052;2023-05-10T03:23:12;97156.00;;;17.80
19040;BMP180;9652;49.014;12.052;2023-05-10T03:25:41;97132.00;;;17.70
19040;BMP180;9652;49.014;12.052;2023-05-10T03:28:11;97158.00;;;17.60
19040;BMP180;9652;49.014;12.052;2023-05-10T03:30:39;97165.00;;;17.60
19040;BMP180;9652;49.014;12.052;2023-05-10T03:33:10;97154.00;;;17.50
19040;BMP180;9652;49.014;12.052;2023-05-10T03:35:41;97168.00;;;17.50
19040;BMP180;9652;49.014;12.052;2023-05-10T03:38:11;97169.00;;;17.40
19040;BMP180;9652;49.014;12.052;2023-05-10T03:40:39;97173.00;;;17.40
19040;BMP180;9652;49.014;12.052;2023-05-10T03:43:07;97160.00;;;17.30
19040;BMP180;9652;49.014;12.052;2023-05-10T03:45:34;97172.00;;;17.20
19040;BMP180;9652;49.014;12.052;2023-05-10T03:48:02;97158.00;;;17.20
19040;BMP180;9652;49.014;12.052;2023-05-10T03:50:29;97174.00;;;17.20
19040;BMP180;9652;49.014;12.052;2023-05-10T03:52:56;97173.00;;;17.20
19040;BMP180;9652;49.014;12.052;2023-05-10T03:55:25;97170.00;;;17.20
19040;BMP180;9652;49.014;12.052;2023-05-10T03:57:52;97172.00;;;17.10
19040;BMP180;9652;49.014;12.052;2023-05-10T04:00:21;97160.00;;;17.10
19040;BMP180;9652;49.014;12.052;2023-05-10T04:02:51;97186.00;;;17.10
19040;BMP180;9652;49.014;12.052;2023-05-10T04:05:20;97177.00;;;17.00
19040;BMP180;9652;49.014;12.052;2023-05-10T04:07:47;97179.00;;;17.00
19040;BMP180;9652;49.014;12.052;2023-05-10T04:10:16;97181.00;;;17.00
19040;BMP180;9652;49.014;12.052;2023-05-10T04:12:44;97188.00;;;16.90
19040;BMP180;9652;49.014;12.052;2023-05-10T04:15:11;97190.00;;;16.90
19040;BMP180;9652;49.014;12.052;2023-05-10T04:17:38;97185.00;;;16.90
19040;BMP180;9652;49.014;12.052;2023-05-10T04:20:07;97185.00;;;16.90
19040;BMP180;9652;49.014;12.052;2023-05-10T04:22:34;97195.00;;;16.90
19040;BMP180;9652;49.014;12.052;2023-05-10T04:25:01;97196.00;;;16.90
19040;BMP180;9652;49.014;12.052;2023-05-10T04:27:28;97191.00;;;16.90
19040;BMP180;9652;49.014;12.052;2023-05-10T04:29:57;97191.00;;;16.90
19040;BMP180;9652;49.014;12.052;2023-05-10T04:32:24;97193.00;;;16.90
19040;BMP180;9652;49.014;12.052;2023-05-10T04:34:51;97181.00;;;16.90
19040;BMP180;9652;49.014;12.052;2023-05-10T04:37:18;97192.00;;;16.90
19040;BMP180;9652;49.014;12.052;2023-05-10T04:39:47;97169.00;;;16.80
19040;BMP180;9652;49.014;12.052;2023-05-10T04:42:14;97189.00;;;16.80
19040;BMP180;9652;49.014;12.052;2023-05-10T04:44:41;97185.00;;;16.70
19040;BMP180;9652;49.014;12.052;2023-05-10T04:47:09;97198.00;;;16.70
19040;BMP180;9652;49.014;12.052;2023-05-10T04:49:38;97198.00;;;16.70
19040;BMP180;9652;49.014;12.052;2023-05-10T04:52:05;97199.00;;;16.60
19040;BMP180;9652;49.014;12.052;2023-05-10T04:54:32;97200.00;;;16.60
19040;BMP180;9652;49.014;12.052;2023-05-10T04:56:59;97203.00;;;16.60
19040;BMP180;9652;49.014;12.052;2023-05-10T04:59:26;97204.00;;;16.50
19040;BMP180;9652;49.014;12.052;2023-05-10T05:01:53;97198.00;;;16.50
19040;BMP180;9652;49.014;12.052;2023-05-10T05:04:21;97210.00;;;16.40
19040;BMP180;9652;49.014;12.052;2023-05-10T05:06:49;97161.00;;;16.40
19040;BMP180;9652;49.014;12.052;2023-05-10T05:09:16;97209.00;;;16.40
19040;BMP180;9652;49.014;12.052;2023-05-10T05:11:43;97220.00;;;16.40
19040;BMP180;9652;49.014;12.052;2023-05-10T05:14:11;97218.00;;;16.40
19040;BMP180;9652;49.014;12.052;2023-05-10T05:16:38;97224.00;;;16.40
19040;BMP180;9652;49.014;12.052;2023-05-10T05:19:05;97224.00;;;16.30
19040;BMP180;9652;49.014;12.052;2023-05-10T05:21:33;97228.00;;;16.30
19040;BMP180;9652;49.014;12.052;2023-05-10T05:24:00;97216.00;;;16.30
19040;BMP180;9652;49.014;12.052;2023-05-10T05:26:27;97236.00;;;16.40
19040;BMP180;9652;49.014;12.052;2023-05-10T05:28:54;97243.00;;;16.40
19040;BMP180;9652;49.014;12.052;2023-05-10T05:31:21;97245.00;;;16.40
19040;BMP180;9652;49.014;12.052;2023-05-10T05:33:48;97244.00;;;16.40
19040;BMP180;9652;49.014;12.052;2023-05-10T05:36:15;97237.00;;;16.40
19040;BMP180;9652;49.014;12.052;2023-05-10T05:38:44;97240.00;;;16.30
19040;BMP180;9652;49.014;12.052;2023-05-10T05:41:11;97246.00;;;16.30
19040;BMP180;9652;49.014;12.052;2023-05-10T05:43:38;97249.00;;;16.30
19040;BMP180;9652;49.014;12.052;2023-05-10T05:46:05;97247.00;;;16.40
19040;BMP180;9652;49.014;12.052;2023-05-10T05:48:32;97256.00;;;16.30
19040;BMP180;9652;49.014;12.052;2023-05-10T05:50:59;97258.00;;;16.40
19040;BMP180;9652;49.014;12.052;2023-05-10T05:53:26;97261.00;;;16.40
19040;BMP180;9652;49.014;12.052;2023-05-10T05:55:56;97262.00;;;16.40
19040;BMP180;9652;49.014;12.052;2023-05-10T05:58:24;97262.00;;;16.50
19040;BMP180;9652;49.014;12.052;2023-05-10T06:00:52;97254.00;;;16.50
19040;BMP180;9652;49.014;12.052;2023-05-10T06:03:19;97258.00;;;16.50
19040;BMP180;9652;49.014;12.052;2023-05-10T06:05:46;97267.00;;;16.20
19040;BMP180;9652;49.014;12.052;2023-05-10T06:08:13;97279.00;;;16.50
19040;BMP180;9652;49.014;12.052;2023-05-10T06:10:41;97260.00;;;16.50
19040;BMP180;9652;49.014;12.052;2023-05-10T06:13:09;97270.00;;;16.60
19040;BMP180;9652;49.014;12.052;2023-05-10T06:15:36;97262.00;;;16.60
19040;BMP180;9652;49.014;12.052;2023-05-10T06:18:03;97196.00;;;16.70
19040;BMP180;9652;49.014;12.052;2023-05-10T06:20:31;97278.00;;;16.70
19040;BMP180;9652;49.014;12.052;2023-05-10T06:22:58;97285.00;;;16.70
19040;BMP180;9652;49.014;12.052;2023-05-10T06:25:25;97280.00;;;16.80
19040;BMP180;9652;49.014;12.052;2023-05-10T06:27:52;97286.00;;;16.80
19040;BMP180;9652;49.014;12.052;2023-05-10T06:30:25;97289.00;;;16.80
19040;BMP180;9652;49.014;12.052;2023-05-10T06:32:54;97291.00;;;16.90
19040;BMP180;9652;49.014;12.052;2023-05-10T06:35:22;97289.00;;;16.80
19040;BMP180;9652;49.014;12.052;2023-05-10T06:37:50;97285.00;;;16.90
19040;BMP180;9652;49.014;12.052;2023-05-10T06:40:18;97295.00;;;16.90
19040;BMP180;9652;49.014;12.052;2023-05-10T06:42:45;97296.00;;;17.00
19040;BMP180;9652;49.014;12.052;2023-05-10T06:45:13;97296.00;;;17.00
19040;BMP180;9652;49.014;12.052;2023-05-10T06:47:42;97302.00;;;17.00
19040;BMP180;9652;49.014;12.052;2023-05-10T06:50:10;97300.00;;;17.10
19040;BMP180;9652;49.014;12.052;2023-05-10T06:52:38;97300.00;;;17.20
19040;BMP180;9652;49.014;12.052;2023-05-10T06:55:06;97308.00;;;17.20
19040;BMP180;9652;49.014;12.052;2023-05-10T06:57:34;97292.00;;;17.30
19040;BMP180;9652;49.014;12.052;2023-05-10T07:00:02;97308.00;;;17.20
19040;BMP180;9652;49.014;12.052;2023-05-10T07:02:30;97313.00;;;17.60
19040;BMP180;9652;49.014;12.052;2023-05-10T07:04:59;97309.00;;;17.60
19040;BMP180;9652;49.014;12.052;2023-05-10T07:07:26;97311.00;;;17.70
19040;BMP180;9652;49.014;12.052;2023-05-10T07:09:53;97318.00;;;17.80
19040;BMP180;9652;49.014;12.052;2023-05-10T07:12:20;97317.00;;;17.90
19040;BMP180;9652;49.014;12.052;2023-05-10T07:14:47;97320.00;;;17.90
19040;BMP180;9652;49.014;12.052;2023-05-10T07:17:14;97262.00;;;18.00
19040;BMP180;9652;49.014;12.052;2023-05-10T07:19:41;97332.00;;;18.00
19040;BMP180;9652;49.014;12.052;2023-05-10T07:22:10;97329.00;;;18.00
19040;BMP180;9652;49.014;12.052;2023-05-10T07:24:37;97331.00;;;18.00
19040;BMP180;9652;49.014;12.052;2023-05-10T07:27:04;97338.00;;;18.00
19040;BMP180;9652;49.014;12.052;2023-05-10T07:29:31;97304.00;;;18.00
19040;BMP180;9652;49.014;12.052;2023-05-10T07:31:58;97322.00;;;18.10
19040;BMP180;9652;49.014;12.052;2023-05-10T07:34:26;97278.00;;;18.10
19040;BMP180;9652;49.014;12.052;2023-05-10T07:36:54;97345.00;;;18.20
19040;BMP180;9652;49.014;12.052;2023-05-10T07:39:22;97344.00;;;18.30
19040;BMP180;9652;49.014;12.052;2023-05-10T07:41:49;97342.00;;;18.40
19040;BMP180;9652;49.014;12.052;2023-05-10T07:44:16;97337.00;;;18.50
19040;BMP180;9652;49.014;12.052;2023-05-10T07:46:44;97297.00;;;18.60
19040;BMP180;9652;49.014;12.052;2023-05-10T07:49:11;97346.00;;;18.70
19040;BMP180;9652;49.014;12.052;2023-05-10T07:51:38;97352.00;;;18.80
19040;BMP180;9652;49.014;12.052;2023-05-10T07:54:05;97351.00;;;18.90
19040;BMP180;9652;49.014;12.052;2023-05-10T07:56:34;97314.00;;;19.00
19040;BMP180;9652;49.014;12.052;2023-05-10T07:59:03;97340.00;;;19.00
19040;BMP180;9652;49.014;12.052;2023-05-10T08:01:32;97349.00;;;18.80
19040;BMP180;9652;49.014;12.052;2023-05-10T08:04:00;97342.00;;;19.20
19040;BMP180;9652;49.014;12.052;2023-05-10T08:06:27;97357.00;;;19.30
19040;BMP180;9652;49.014;12.052;2023-05-10T08:08:56;97354.00;;;19.30
19040;BMP180;9652;49.014;12.052;2023-05-10T08:11:23;97362.00;;;19.40
19040;BMP180;9652;49.014;12.052;2023-05-10T08:13:52;97365.00;;;19.40
19040;BMP180;9652;49.014;12.052;2023-05-10T08:16:20;97364.00;;;19.50
19040;BMP180;9652;49.014;12.052;2023-05-10T08:18:47;97342.00;;;19.60
19040;BMP180;9652;49.014;12.052;2023-05-10T08:21:16;97365.00;;;19.70
19040;BMP180;9652;49.014;12.052;2023-05-10T08:23:43;97375.00;;;19.80
19040;BMP180;9652;49.014;12.052;2023-05-10T08:26:11;97367.00;;;19.90
19040;BMP180;9652;49.014;12.052;2023-05-10T08:28:38;97368.00;;;19.90
19040;BMP180;9652;49.014;12.052;2023-05-10T08:31:07;97361.00;;;19.90
19040;BMP180;9652;49.014;12.052;2023-05-10T08:33:34;97368.00;;;20.00
19040;BMP180;9652;49.014;12.052;2023-05-10T08:36:01;97372.00;;;20.00
19040;BMP180;9652;49.014;12.052;2023-05-10T08:38:28;97331.00;;;20.10
19040;BMP180;9652;49.014;12.052;2023-05-10T08:40:56;97324.00;;;20.10
19040;BMP180;9652;49.014;12.052;2023-05-10T08:43:27;97319.00;;;20.20
19040;BMP180;9652;49.014;12.052;2023-05-10T08:45:55;97370.00;;;20.20
19040;BMP180;9652;49.014;12.052;2023-05-10T08:48:24;97379.00;;;20.20
19040;BMP180;9652;49.014;12.052;2023-05-10T08:50:53;97366.00;;;20.30
19040;BMP180;9652;49.014;12.052;2023-05-10T08:53:24;97385.00;;;20.30
19040;BMP180;9652;49.014;12.052;2023-05-10T08:55:52;97391.00;;;20.30
19040;BMP180;9652;49.014;12.052;2023-05-10T08:58:20;97397.00;;;20.30
19040;BMP180;9652;49.014;12.052;2023-05-10T09:00:49;97359.00;;;20.30
19040;BMP180;9652;49.014;12.052;2023-05-10T09:03:18;97394.00;;;20.30
19040;BMP180;9652;49.014;12.052;2023-05-10T09:05:46;97398.00;;;20.20
19040;BMP180;9652;49.014;12.052;2023-05-10T09:08:14;97394.00;;;20.20
19040;BMP180;9652;49.014;12.052;2023-05-10T09:10:44;97380.00;;;20.10
19040;BMP180;9652;49.014;12.052;2023-05-10T09:13:14;97393.00;;;20.10
19040;BMP180;9652;49.014;12.052;2023-05-10T09:15:43;97398.00;;;20.00
19040;BMP180;9652;49.014;12.052;2023-05-10T09:18:11;97387.00;;;20.00
19040;BMP180;9652;49.014;12.052;2023-05-10T09:20:38;97396.00;;;20.00
19040;BMP180;9652;49.014;12.052;2023-05-10T09:23:06;97366.00;;;20.10
19040;BMP180;9652;49.014;12.052;2023-05-10T09:25:34;97399.00;;;20.20
19040;BMP180;9652;49.014;12.052;2023-05-10T09:28:06;97397.00;;;20.20
19040;BMP180;9652;49.014;12.052;2023-05-10T09:30:34;97396.00;;;20.30
19040;BMP180;9652;49.014;12.052;2023-05-10T09:33:02;97383.00;;;20.40
19040;BMP180;9652;49.014;12.052;2023-05-10T09:35:31;97354.00;;;20.50
19040;BMP180;9652;49.014;12.052;2023-05-10T09:38:03;97409.00;;;20.60
19040;BMP180;9652;49.014;12.052;2023-05-10T09:40:32;97411.00;;;20.80
19040;BMP180;9652;49.014;12.052;2023-05-10T09:43:03;97398.00;;;20.90
19040;BMP180;9652;49.014;12.052;2023-05-10T09:45:33;97399.00;;;21.10
19040;BMP180;9652;49.014;12.052;2023-05-10T09:48:02;97395.00;;;21.20
19040;BMP180;9652;49.014;12.052;2023-05-10T09:50:29;97400.00;;;21.30
19040;BMP180;9652;49.014;12.052;2023-05-10T09:52:59;97394.00;;;21.30
19040;BMP180;9652;49.014;12.052;2023-05-10T09:55:40;97403.00;;;21.50
19040;BMP180;9652;49.014;12.052;2023-05-10T09:58:10;97398.00;;;21.60
19040;BMP180;9652;49.014;12.052;2023-05-10T10:00:39;97399.00;;;21.70
19040;BMP180;9652;49.014;12.052;2023-05-10T10:03:15;97398.00;;;21.80
19040;BMP180;9652;49.014;12.052;2023-05-10T10:05:44;97398.00;;;21.90
19040;BMP180;9652;49.014;12.052;2023-05-10T10:08:13;97396.00;;;22.00
19040;BMP180;9652;49.014;12.052;2023-05-10T10:10:42;97386.00;;;22.10
19040;BMP180;9652;49.014;12.052;2023-05-10T10:13:10;97380.00;;;22.20
19040;BMP180;9652;49.014;12.052;2023-05-10T10:15:38;97411.00;;;22.30
19040;BMP180;9652;49.014;12.052;2023-05-10T10:18:06;97399.00;;;22.40
19040;BMP180;9652;49.014;12.052;2023-05-10T10:20:33;97395.00;;;22.50
19040;BMP180;9652;49.014;12.052;2023-05-10T10:23:00;97401.00;;;22.60
19040;BMP180;9652;49.014;12.052;2023-05-10T10:25:27;97392.00;;;22.70
19040;BMP180;9652;49.014;12.052;2023-05-10T10:28:11;97401.00;;;22.80
19040;BMP180;9652;49.014;12.052;2023-05-10T10:30:47;97398.00;;;22.90
19040;BMP180;9652;49.014;12.052;2023-05-10T10:33:39;97388.00;;;23.00
19040;BMP180;9652;49.014;12.052;2023-05-10T10:36:07;97391.00;;;23.10
19040;BMP180;9652;49.014;12.052;2023-05-10T10:38:55;97345.00;;;23.20
19040;BMP180;9652;49.014;12.052;2023-05-10T10:41:33;97363.00;;;23.30
19040;BMP180;9652;49.014;12.052;2023-05-10T10:44:35;97370.00;;;23.40
19040;BMP180;9652;49.014;12.052;2023-05-10T10:47:22;97378.00;;;23.40
19040;BMP180;9652;49.014;12.052;2023-05-10T10:49:54;97374.00;;;23.40
19040;BMP180;9652;49.014;12.052;2023-05-10T10:52:32;97373.00;;;23.30
19040;BMP180;9652;49.014;12.052;2023-05-10T10:55:03;97373.00;;;23.30
19040;BMP180;9652;49.014;12.052;2023-05-10T10:57:45;97338.00;;;23.30
19040;BMP180;9652;49.014;12.052;2023-05-10T11:00:26;97369.00;;;23.30
19040;BMP180;9652;49.014;12.052;2023-05-10T11:02:58;97368.00;;;23.00
19040;BMP180;9652;49.014;12.052;2023-05-10T11:05:44;97365.00;;;23.40
19040;BMP180;9652;49.014;12.052;2023-05-10T11:08:18;97370.00;;;23.40
19040;BMP180;9652;49.014;12.052;2023-05-10T11:11:04;97364.00;;;23.50
19040;BMP180;9652;49.014;12.052;2023-05-10T11:13:38;97362.00;;;23.50
19040;BMP180;9652;49.014;12.052;2023-05-10T11:16:16;97360.00;;;23.60
19040;BMP180;9652;49.014;12.052;2023-05-10T11:18:58;97368.00;;;23.60
19040;BMP180;9652;49.014;12.052;2023-05-10T11:21:27;97369.00;;;23.70
19040;BMP180;9652;49.014;12.052;2023-05-10T11:23:56;97360.00;;;23.70
19040;BMP180;9652;49.014;12.052;2023-05-10T11:26:24;97354.00;;;23.60
19040;BMP180;9652;49.014;12.052;2023-05-10T11:28:53;97367.00;;;23.50
19040;BMP180;9652;49.014;12.052;2023-05-10T11:31:23;97370.00;;;23.40
19040;BMP180;9652;49.014;12.052;2023-05-10T11:33:54;97372.00;;;23.40
19040;BMP180;9652;49.014;12.052;2023-05-10T11:36:27;97365.00;;;23.30
19040;BMP180;9652;49.014;12.052;2023-05-10T11:38:56;97358.00;;;23.40
19040;BMP180;9652;49.014;12.052;2023-05-10T11:41:24;97368.00;;;23.40
19040;BMP180;9652;49.014;12.052;2023-05-10T11:43:53;97365.00;;;23.50
19040;BMP180;9652;49.014;12.052;2023-05-10T11:46:25;97363.00;;;23.60
19040;BMP180;9652;49.014;12.052;2023-05-10T11:48:57;97355.00;;;23.70
19040;BMP180;9652;49.014;12.052;2023-05-10T11:51:26;97362.00;;;23.90
19040;BMP180;9652;49.014;12.052;2023-05-10T11:53:56;97346.00;;;24.00
19040;BMP180;9652;49.014;12.052;2023-05-10T11:56:23;97365.00;;;24.20
19040;BMP180;9652;49.014;12.052;2023-05-10T11:58:56;97374.00;;;24.20
19040;BMP180;9652;49.014;12.052;2023-05-10T12:01:27;97371.00;;;24.50
19040;BMP180;9652;49.014;12.052;2023-05-10T12:03:57;97368.00;;;24.60
19040;BMP180;9652;49.014;12.052;2023-05-10T12:06:29;97375.00;;;24.70
19040;BMP180;9652;49.014;12.052;2023-05-10T12:08:58;97359.00;;;24.80
19040;BMP180;9652;49.014;12.052;2023-05-10T12:11:27;97354.00;;;24.90
19040;BMP180;9652;49.014;12.052;2023-05-10T12:13:55;97369.00;;;25.00
19040;BMP180;9652;49.014;12.052;2023-05-10T12:16:26;97377.00;;;25.10
19040;BMP180;9652;49.014;12.052;2023-05-10T12:18:57;97352.00;;;25.20
19040;BMP180;9652;49.014;12.052;2023-05-10T12:21:25;97346.00;;;25.30
19040;BMP180;9652;49.014;12.052;2023-05-10T12:23:56;97382.00;;;25.30
19040;BMP180;9652;49.014;12.052;2023-05-10T12:26:27;97369.00;;;25.40
19040;BMP180;9652;49.014;12.052;2023-05-10T12:28:55;97371.00;;;25.40
19040;BMP180;9652;49.014;12.052;2023-05-10T12:31:51;97387.00;;;25.20
19040;BMP180;9652;49.014;12.052;2023-05-10T12:34:26;97383.00;;;25.00
19040;BMP180;9652;49.014;12.052;2023-05-10T12:36:54;97388.00;;;24.70
19040;BMP180;9652;49.014;12.052;2023-05-10T12:39:22;97384.00;;;24.40
19040;BMP180;9652;49.014;12.052;2023-05-10T12:41:49;97393.00;;;24.20
19040;BMP180;9652;49.014;12.052;2023-05-10T12:44:16;97381.00;;;23.90
19040;BMP180;9652;49.014;12.052;2023-05-10T12:46:43;97389.00;;;23.70
19040;BMP180;9652;49.014;12.052;2023-05-10T12:49:11;97410.00;;;23.50
19040;BMP180;9652;49.014;12.052;2023-05-10T12:51:38;97410.00;;;23.10
19040;BMP180;9652;49.014;12.052;2023-05-10T12:54:05;97417.00;;;22.80
19040;BMP180;9652;49.014;12.052;2023-05-10T12:56:32;97419.00;;;22.50
19040;BMP180;9652;49.014;12.052;2023-05-10T12:58:59;97432.00;;;22.10
19040;BMP180;9652;49.014;12.052;2023-05-10T13:01:27;97394.00;;;21.70
19040;BMP180;9652;49.014;12.052;2023-05-10T13:03:54;97416.00;;;21.30
19040;BMP180;9652;49.014;12.052;2023-05-10T13:06:22;97423.00;;;20.90
19040;BMP180;9652;49.014;12.052;2023-05-10T13:08:49;97421.00;;;20.70
19040;BMP180;9652;49.014;12.052;2023-05-10T13:11:17;97424.00;;;20.40
19040;BMP180;9652;49.014;12.052;2023-05-10T13:13:45;97415.00;;;20.30
19040;BMP180;9652;49.014;12.052;2023-05-10T13:16:12;97407.00;;;20.20
19040;BMP180;9652;49.014;12.052;2023-05-10T13:18:39;97407.00;;;20.10
19040;BMP180;9652;49.014;12.052;2023-05-10T13:21:06;97416.00;;;20.00
19040;BMP180;9652;49.014;12.052;2023-05-10T13:23:35;97411.00;;;19.90
19040;BMP180;9652;49.014;12.052;2023-05-10T13:26:02;97397.00;;;19.90
19040;BMP180;9652;49.014;12.052;2023-05-10T13:28:29;97417.00;;;19.80
19040;BMP180;9652;49.014;12.052;2023-05-10T13:30:56;97405.00;;;19.80
19040;BMP180;9652;49.014;12.052;2023-05-10T13:33:23;97399.00;;;19.70
19040;BMP180;9652;49.014;12.052;2023-05-10T13:35:50;97399.00;;;19.70
19040;BMP180;9652;49.014;12.052;2023-05-10T13:38:17;97398.00;;;19.70
19040;BMP180;9652;49.014;12.052;2023-05-10T13:40:45;97372.00;;;19.70
19040;BMP180;9652;49.014;12.052;2023-05-10T13:43:13;97392.00;;;19.70
19040;BMP180;9652;49.014;12.052;2023-05-10T13:45:40;97394.00;;;19.70
19040;BMP180;9652;49.014;12.052;2023-05-10T13:48:08;97389.00;;;19.80
19040;BMP180;9652;49.014;12.052;2023-05-10T13:50:35;97404.00;;;19.80
19040;BMP180;9652;49.014;12.052;2023-05-10T13:53:02;97406.00;;;19.80
19040;BMP180;9652;49.014;12.052;2023-05-10T13:55:29;97404.00;;;19.80
19040;BMP180;9652;49.014;12.052;2023-05-10T13:57:57;97361.00;;;19.70
19040;BMP180;9652;49.014;12.052;2023-05-10T14:00:24;97397.00;;;19.70
19040;BMP180;9652;49.014;12.052;2023-05-10T14:02:52;97387.00;;;19.70
19040;BMP180;9652;49.014;12.052;2023-05-10T14:05:19;97397.00;;;19.70
19040;BMP180;9652;49.014;12.052;2023-05-10T14:07:46;97376.00;;;19.70
19040;BMP180;9652;49.014;12.052;2023-05-10T14:10:13;97406.00;;;19.70
19040;BMP180;9652;49.014;12.052;2023-05-10T14:12:40;97395.00;;;19.60
19040;BMP180;9652;49.014;12.052;2023-05-10T14:15:10;97399.00;;;19.70
19040;BMP180;9652;49.014;12.052;2023-05-10T14:17:37;97404.00;;;19.70
19040;BMP180;9652;49.014;12.052;2023-05-10T14:20:06;97398.00;;;19.70
19040;BMP180;9652;49.014;12.052;2023-05-10T14:22:33;97298.00;;;19.70